createdAt,value
2023-02-02T01:27:10.427Z,98513.14
2023-02-02T01:29:39.317Z,98515.68
2023-02-02T01:32:07.594Z,98514.41
2023-02-02T01:34:40.890Z,98511.04
2023-02-02T01:37:09.734Z,98507.19
2023-02-02T01:39:38.877Z,98509.15
2023-02-02T01:42:14.954Z,98507.02
2023-02-02T01:44:53.052Z,98511.21
2023-02-02T01:47:22.577Z,98517.30
2023-02-02T01:49:51.029Z,98511.64
2023-02-02T01:52:19.961Z,98510.73
2023-02-02T01:54:50.677Z,98518.29
2023-02-02T01:57:24.065Z,98514.48
2023-02-02T01:59:52.441Z,98513.31
2023-02-02T02:02:20.859Z,98511.66
2023-02-02T02:04:49.931Z,98514.33
2023-02-02T02:07:18.403Z,98511.24
2023-02-02T02:09:47.326Z,98513.48
2023-02-02T02:12:16.111Z,98516.73
2023-02-02T02:15:04.946Z,98516.77
2023-02-02T02:17:43.563Z,98518.44
2023-02-02T02:20:45.876Z,98519.08
2023-02-02T02:23:48.216Z,98515.88
2023-02-02T02:26:38.030Z,98517.58
2023-02-02T02:29:19.691Z,98520.84
2023-02-02T02:31:48.075Z,98517.85
2023-02-02T02:34:17.268Z,98518.59
2023-02-02T02:36:55.082Z,98518.17
2023-02-02T02:39:30.010Z,98519.77
2023-02-02T02:42:00.664Z,98521.95
2023-02-02T02:44:30.153Z,98525.19
2023-02-02T02:46:58.325Z,98529.37
2023-02-02T02:49:27.424Z,98525.46
2023-02-02T02:51:56.553Z,98523.88
2023-02-02T02:54:40.660Z,98530.54
2023-02-02T02:57:15.093Z,98530.80
2023-02-02T03:00:05.101Z,98532.02
2023-02-02T03:02:37.519Z,98532.34
2023-02-02T03:05:14.705Z,98532.45
2023-02-02T03:07:45.273Z,98530.54
2023-02-02T03:10:13.887Z,98534.11
2023-02-02T03:12:46.749Z,98534.66
2023-02-02T03:15:15.641Z,98537.38
2023-02-02T03:17:43.841Z,98538.56
2023-02-02T03:20:12.415Z,98535.80
2023-02-02T03:22:41.102Z,98537.60
2023-02-02T03:25:11.434Z,98537.71
2023-02-02T03:27:40.306Z,98540.77
2023-02-02T03:30:10.274Z,98543.52
2023-02-02T03:32:39.948Z,98544.11
2023-02-02T03:35:09.234Z,98542.77
2023-02-02T03:37:37.529Z,98548.84
2023-02-02T03:40:06.845Z,98548.92
2023-02-02T03:42:35.146Z,98550.88
2023-02-02T03:45:04.702Z,98551.52
2023-02-02T03:47:33.086Z,98552.00
2023-02-02T03:50:01.561Z,98550.08
2023-02-02T03:52:29.840Z,98554.04
2023-02-02T03:54:58.017Z,98553.51
2023-02-02T03:57:26.192Z,98549.83
2023-02-02T03:59:54.778Z,98550.48
2023-02-02T04:02:23.265Z,98551.48
2023-02-02T04:04:51.541Z,98550.30
2023-02-02T04:07:20.635Z,98550.55
2023-02-02T04:09:49.651Z,98546.02
2023-02-02T04:12:17.857Z,98547.68
2023-02-02T04:14:46.808Z,98548.16
2023-02-02T04:17:15.081Z,98548.85
2023-02-02T04:19:44.087Z,98549.97
2023-02-02T04:22:12.326Z,98546.13
2023-02-02T04:24:40.740Z,98547.40
2023-02-02T04:27:08.918Z,98549.80
2023-02-02T04:29:37.397Z,98552.20
2023-02-02T04:32:05.779Z,98549.96
2023-02-02T04:34:35.881Z,98556.04
2023-02-02T04:37:04.379Z,98562.76
2023-02-02T04:39:34.231Z,98565.52
2023-02-02T04:42:02.988Z,98569.98
2023-02-02T04:44:31.229Z,98566.89
2023-02-02T04:47:01.803Z,98562.83
2023-02-02T04:49:30.625Z,98566.13
2023-02-02T04:51:58.863Z,98566.56
2023-02-02T04:54:30.116Z,98569.05
2023-02-02T04:56:58.492Z,98569.69
2023-02-02T04:59:28.718Z,98570.48
2023-02-02T05:02:00.835Z,98568.69
2023-02-02T05:04:29.408Z,98573.94
2023-02-02T05:06:57.847Z,98570.63
2023-02-02T05:09:26.125Z,98569.95
2023-02-02T05:11:56.064Z,98568.73
2023-02-02T05:14:24.612Z,98571.23
2023-02-02T05:16:53.942Z,98573.56
2023-02-02T05:19:22.232Z,98575.75
2023-02-02T05:21:51.422Z,98576.28
2023-02-02T05:24:19.733Z,98573.02
2023-02-02T05:26:48.093Z,98572.06
2023-02-02T05:29:16.937Z,98578.75
2023-02-02T05:31:45.486Z,98577.79
2023-02-02T05:34:13.772Z,98582.41
2023-02-02T05:36:42.295Z,98584.85
2023-02-02T05:39:11.001Z,98590.70
2023-02-02T05:41:39.276Z,98592.52
2023-02-02T05:44:07.530Z,98590.44
2023-02-02T05:46:35.931Z,98597.30
2023-02-02T05:49:07.613Z,98596.17
2023-02-02T05:51:40.775Z,98590.48
2023-02-02T05:54:09.273Z,98594.05
2023-02-02T05:56:37.539Z,98594.10
2023-02-02T05:59:07.664Z,98603.65
2023-02-02T06:01:37.167Z,98603.44
2023-02-02T06:04:05.898Z,98605.29
2023-02-02T06:06:38.230Z,98606.26
2023-02-02T06:09:07.187Z,98604.02
2023-02-02T06:11:39.696Z,98604.57
2023-02-02T06:14:08.187Z,98604.30
2023-02-02T06:16:37.490Z,98612.25
2023-02-02T06:19:05.868Z,98617.53
2023-02-02T06:21:34.245Z,98620.69
2023-02-02T06:24:06.144Z,98622.20
2023-02-02T06:26:35.034Z,98622.16
2023-02-02T06:29:04.165Z,98622.73
2023-02-02T06:31:34.354Z,98628.19
2023-02-02T06:34:02.913Z,98632.63
2023-02-02T06:36:32.006Z,98631.20
2023-02-02T06:39:00.409Z,98635.64
2023-02-02T06:41:28.873Z,98638.36
2023-02-02T06:43:57.252Z,98642.45
2023-02-02T06:46:25.557Z,98637.16
2023-02-02T06:48:53.693Z,98639.42
2023-02-02T06:51:21.923Z,98640.35
2023-02-02T06:53:50.361Z,98643.77
2023-02-02T06:56:18.539Z,98634.18
2023-02-02T06:58:46.812Z,98639.06
2023-02-02T07:01:15.645Z,98639.20
2023-02-02T07:03:44.040Z,98641.98
2023-02-02T07:06:25.866Z,98645.08
2023-02-02T10:31:41.993Z,98660.18
2023-02-02T10:34:33.442Z,98645.39
2023-02-02T10:37:40.123Z,98633.23
2023-02-02T10:40:27.441Z,98621.10
2023-02-02T10:43:23.950Z,98624.30
2023-02-02T10:45:52.512Z,98625.98
2023-02-02T10:48:23.817Z,98625.36
2023-02-02T10:50:54.673Z,98630.66
2023-02-02T10:53:22.867Z,98639.36
2023-02-02T10:55:56.099Z,98637.48
2023-02-02T10:58:48.679Z,98636.44
2023-02-02T11:01:18.440Z,98635.09
2023-02-02T11:03:46.975Z,98635.65
2023-02-02T11:06:33.993Z,98631.65
2023-02-02T11:09:05.132Z,98632.83
2023-02-02T11:11:34.948Z,98631.21
2023-02-02T11:14:12.653Z,98637.29
2023-02-02T11:16:44.724Z,98638.54
2023-02-02T11:19:18.090Z,98638.35
2023-02-02T11:21:51.481Z,98644.40
2023-02-02T11:24:41.098Z,98639.67
2023-02-02T11:27:17.273Z,98639.23
2023-02-02T11:29:47.434Z,98638.48
2023-02-02T11:32:29.727Z,98633.84
2023-02-02T11:35:04.832Z,98635.27
2023-02-02T11:37:35.076Z,98639.19
2023-02-02T11:40:37.351Z,98635.27
2023-02-02T11:43:28.493Z,98634.04
2023-02-02T11:46:05.997Z,98634.59
2023-02-02T11:48:37.080Z,98634.52
2023-02-02T11:51:06.662Z,98635.86
2023-02-02T11:53:50.444Z,98636.84
2023-02-02T11:56:23.833Z,98635.94
2023-02-02T11:58:53.223Z,98633.44
2023-02-02T12:01:29.404Z,98631.56
2023-02-02T12:04:02.030Z,98636.65
2023-02-02T12:06:33.218Z,98633.43
2023-02-02T12:09:02.606Z,98642.39
2023-02-02T12:11:42.876Z,98641.54
2023-02-02T12:14:32.083Z,98641.27
2023-02-02T12:17:14.454Z,98639.45
2023-02-02T12:20:01.887Z,98638.30
2023-02-02T12:22:52.689Z,98637.20
2023-02-02T12:25:47.288Z,98639.04
2023-02-02T12:28:27.851Z,98636.48
2023-02-02T12:31:34.152Z,98645.15
2023-02-02T12:34:27.823Z,98649.62
2023-02-02T12:37:24.591Z,98653.92
2023-02-02T12:39:52.923Z,98650.67
2023-02-02T12:42:50.035Z,98650.04
2023-02-02T12:45:38.143Z,98648.23
2023-02-02T12:48:31.172Z,98655.09
2023-02-02T12:51:06.824Z,98651.30
2023-02-02T12:54:32.943Z,98651.98
2023-02-02T12:56:44.768Z,98656.77
2023-02-02T12:59:19.217Z,98657.89
2023-02-02T13:01:54.131Z,98657.02
2023-02-02T13:05:05.197Z,98657.60
2023-02-02T13:07:42.069Z,98657.11
2023-02-02T13:10:31.849Z,98661.30
2023-02-02T13:13:08.670Z,98663.50
2023-02-02T13:15:38.780Z,98662.83
2023-02-02T13:18:11.845Z,98667.33
2023-02-02T13:21:03.671Z,98672.01
2023-02-02T13:23:41.092Z,98672.39
2023-02-02T13:26:18.391Z,98676.84
2023-02-02T13:29:20.424Z,98678.15
2023-02-02T13:31:52.347Z,98671.70
2023-02-02T13:34:23.678Z,98672.88
2023-02-02T13:36:57.574Z,98675.94
2023-02-02T13:39:33.412Z,98678.77
2023-02-02T13:42:03.047Z,98677.61
2023-02-02T13:44:38.939Z,98674.93
2023-02-02T13:47:12.847Z,98675.85
2023-02-02T13:49:51.306Z,98674.83
2023-02-02T13:52:41.279Z,98678.20
2023-02-02T13:55:21.997Z,98684.45
2023-02-02T13:58:19.573Z,98691.52
2023-02-02T14:00:53.013Z,98699.41
2023-02-02T14:03:33.904Z,98701.40
2023-02-02T14:06:19.149Z,98695.63
2023-02-02T14:08:55.959Z,98697.59
2023-02-02T14:11:32.721Z,98702.16
2023-02-02T14:14:32.243Z,98701.34
2023-02-02T14:17:08.200Z,98700.43
2023-02-02T14:19:36.367Z,98703.84
2023-02-02T14:22:10.478Z,98707.21
2023-02-02T14:24:42.241Z,98710.09
2023-02-02T14:27:14.117Z,98715.38
2023-02-02T14:29:46.789Z,98713.45
2023-02-02T14:32:24.618Z,98711.42
2023-02-02T14:35:10.170Z,98712.23
2023-02-02T14:37:43.343Z,98711.68
2023-02-02T14:40:50.368Z,98711.27
2023-02-02T14:43:46.424Z,98714.02
2023-02-02T14:46:14.884Z,98712.80
2023-02-02T14:48:43.960Z,98716.70
2023-02-02T14:51:14.679Z,98721.77
2023-02-02T14:53:48.913Z,98723.90
2023-02-02T14:56:17.425Z,98729.34
2023-02-02T14:58:51.880Z,98734.29
2023-02-02T15:01:27.507Z,98735.55
2023-02-02T15:03:55.878Z,98745.94
2023-02-02T15:06:28.354Z,98750.82
2023-02-02T15:09:20.935Z,98751.95
2023-02-02T15:12:00.843Z,98758.70
2023-02-02T15:14:35.954Z,98761.33
2023-02-02T15:17:26.981Z,98764.02
2023-02-02T15:20:14.505Z,98764.77
2023-02-02T15:22:44.038Z,98767.13
2023-02-02T15:25:31.329Z,98768.19
2023-02-02T15:28:11.538Z,98770.62
2023-02-02T15:30:42.778Z,98779.91
2023-02-02T15:33:47.881Z,98781.52
2023-02-02T15:36:25.924Z,98782.05
2023-02-02T15:38:59.167Z,98781.89
2023-02-02T15:41:34.222Z,98780.98
2023-02-02T15:44:21.906Z,98782.91
2023-02-02T15:46:50.108Z,98787.02
2023-02-02T15:49:34.912Z,98791.95
2023-02-02T15:52:27.683Z,98792.53
2023-02-02T15:54:57.388Z,98797.99
2023-02-02T15:57:35.499Z,98795.41
2023-02-02T16:00:23.620Z,98799.19
2023-02-02T16:03:00.700Z,98798.30
2023-02-02T18:16:56.259Z,98891.61
2023-02-02T18:19:24.955Z,98891.70
2023-02-02T18:21:53.503Z,98893.20
2023-02-02T18:24:21.879Z,98899.02
2023-02-02T18:26:50.250Z,98897.41
2023-02-02T18:29:21.771Z,98900.05
2023-02-02T18:31:50.154Z,98898.44
2023-02-02T18:34:18.472Z,98903.00
2023-02-02T18:36:49.615Z,98905.77
2023-02-02T18:39:17.898Z,98905.90
2023-02-02T18:41:46.275Z,98913.18
2023-02-02T18:44:14.666Z,98915.15
2023-02-02T18:46:47.171Z,98915.34
2023-02-02T18:49:15.504Z,98920.37
2023-02-02T18:51:44.303Z,98922.55
2023-02-02T18:54:13.028Z,98918.59
2023-02-02T18:56:41.458Z,98921.16
2023-02-02T18:59:09.832Z,98921.90
2023-02-02T19:01:38.490Z,98918.91
2023-02-02T19:04:07.032Z,98921.95
2023-02-02T19:06:53.939Z,98923.37
2023-02-02T19:09:22.444Z,98923.02
2023-02-02T19:11:51.331Z,98923.55
2023-02-02T19:14:26.603Z,98933.09
2023-02-02T19:16:56.442Z,98929.96
2023-02-02T19:19:33.396Z,98930.71
2023-02-02T19:22:07.839Z,98932.64
2023-02-02T19:24:39.382Z,98935.19
2023-02-02T19:27:22.118Z,98934.83
2023-02-02T19:29:52.157Z,98942.18
2023-02-02T19:32:23.325Z,98940.27
2023-02-02T19:34:57.368Z,98943.58
2023-02-02T19:37:27.027Z,98940.33
2023-02-02T19:39:56.640Z,98940.91
2023-02-02T19:42:24.953Z,98940.55
2023-02-02T19:44:56.745Z,98943.05
2023-02-02T19:47:30.654Z,98943.20
2023-02-02T19:49:59.924Z,98943.05
2023-02-02T19:52:28.285Z,98946.56
2023-02-02T19:54:56.843Z,98947.27
2023-02-02T19:57:42.036Z,98942.98
2023-02-02T20:00:23.310Z,98942.67
2023-02-02T20:03:02.754Z,98941.11
2023-02-02T20:05:41.857Z,98946.16
2023-02-02T20:08:24.229Z,98945.00
2023-02-02T20:10:53.735Z,98945.10
2023-02-02T20:13:24.068Z,98952.46
2023-02-02T20:16:03.743Z,98947.41
2023-02-02T20:18:42.985Z,98950.14
2023-02-02T20:21:24.501Z,98950.47
2023-02-02T20:23:53.808Z,98956.63
2023-02-02T20:26:26.448Z,98952.43
2023-02-02T20:28:56.837Z,98954.34
2023-02-02T20:31:39.457Z,98955.42
2023-02-02T20:34:27.785Z,98957.92
2023-02-02T20:37:02.814Z,98958.10
2023-02-02T20:39:42.829Z,98961.64
2023-02-02T20:42:10.963Z,98961.14
2023-02-02T20:44:39.625Z,98964.44
2023-02-02T20:47:08.925Z,98967.99
2023-02-02T20:49:37.821Z,98969.42
2023-02-02T20:52:08.220Z,98968.68
2023-02-02T20:54:36.738Z,98968.05
2023-02-02T20:57:05.326Z,98973.02
2023-02-02T20:59:33.571Z,98975.42
2023-02-02T21:02:02.056Z,98972.27
2023-02-02T21:04:30.661Z,98973.55
2023-02-02T21:07:02.533Z,98977.71
2023-02-02T21:09:31.536Z,98977.05
2023-02-02T21:12:00.123Z,98978.90
2023-02-02T21:14:28.615Z,98978.33
2023-02-02T21:17:09.049Z,98982.70
2023-02-02T21:19:42.660Z,98980.94
2023-02-02T21:22:11.466Z,98979.98
2023-02-02T21:24:40.651Z,98982.26
2023-02-02T21:27:09.484Z,98985.28
2023-02-02T21:29:38.977Z,98987.95
2023-02-02T21:32:07.846Z,98988.97
2023-02-02T21:34:38.010Z,98992.52
2023-02-02T21:37:12.275Z,98990.98
2023-02-02T21:39:48.700Z,98993.42
2023-02-02T21:42:19.081Z,98992.48
2023-02-02T21:44:57.070Z,98998.46
2023-02-02T21:47:25.556Z,99000.86
2023-02-02T21:49:55.837Z,99001.26
2023-02-02T21:52:24.098Z,99004.58
2023-02-02T21:54:53.944Z,99007.46
2023-02-02T21:57:36.600Z,99017.01
2023-02-02T22:00:25.134Z,99003.36
2023-02-02T22:02:54.288Z,99009.86
2023-02-02T22:05:35.737Z,99011.02
2023-02-02T22:08:18.199Z,99012.90
2023-02-02T22:10:46.751Z,99015.18
2023-02-02T22:13:23.539Z,99014.60
2023-02-02T22:15:56.136Z,99021.39
2023-02-02T22:18:25.527Z,99019.21
2023-02-02T22:20:54.696Z,99028.52
2023-02-02T22:23:25.196Z,99024.69
2023-02-02T22:25:55.254Z,99020.83
2023-02-02T22:28:26.380Z,99024.83
2023-02-02T22:30:56.190Z,99028.77
2023-02-02T22:33:26.464Z,99030.52
2023-02-02T22:35:54.901Z,99038.30
2023-02-02T22:38:24.574Z,99037.90
2023-02-02T22:40:55.922Z,99039.02
2023-02-02T22:43:27.519Z,99044.23
2023-02-02T22:45:55.890Z,99046.77
2023-02-02T22:48:24.103Z,99050.58
2023-02-02T22:50:53.482Z,99048.66
2023-02-02T22:53:22.513Z,99050.45
2023-02-02T22:55:56.548Z,99056.11
2023-02-02T22:58:26.008Z,99056.13
2023-02-02T23:00:54.680Z,99055.13
2023-02-02T23:03:22.862Z,99054.45
2023-02-02T23:05:51.239Z,99053.56
2023-02-02T23:08:19.387Z,99054.36
2023-02-02T23:11:07.475Z,99054.36
2023-02-02T23:13:35.834Z,99054.39
2023-02-02T23:16:04.938Z,99051.61
2023-02-02T23:18:33.105Z,99047.92
2023-02-02T23:21:01.385Z,99052.39
2023-02-02T23:23:29.726Z,99050.73
2023-02-02T23:25:57.848Z,99051.95
2023-02-02T23:28:26.113Z,99052.02
2023-02-02T23:30:54.849Z,99050.38
2023-02-02T23:33:23.151Z,99053.17
2023-02-02T23:35:51.348Z,99049.48
2023-02-02T23:38:19.498Z,99052.35
2023-02-02T23:40:47.836Z,99055.88
2023-02-02T23:43:15.970Z,99055.30
2023-02-02T23:45:44.500Z,99056.74
2023-02-02T23:48:13.304Z,99058.01
2023-02-02T23:50:41.881Z,99059.98
2023-02-02T23:53:10.740Z,99063.66
2023-02-02T23:55:43.051Z,99063.65
2023-02-02T23:58:12.003Z,99061.15
